sensor_id;sensor_type;location;lat;lon;timestamp;temperature;humidity
24338;DHT22;12457;50.832;4.346;2022-07-23T00:01:22;17.00;97.30
24338;DHT22;12457;50.832;4.346;2022-07-23T00:03:48;17.00;97.60
24338;DHT22;12457;50.832;4.346;2022-07-23T00:06:15;16.90;98.80
24338;DHT22;12457;50.832;4.346;2022-07-23T00:08:41;16.70;99.90
24338;DHT22;12457;50.832;4.346;2022-07-23T00:11:07;16.70;99.90
24338;DHT22;12457;50.832;4.346;2022-07-23T00:13:33;16.60;99.90
24338;DHT22;12457;50.832;4.346;2022-07-23T00:15:59;16.60;99.90
24338;DHT22;12457;50.832;4.346;2022-07-23T00:18:26;16.60;99.90
24338;DHT22;12457;50.832;4.346;2022-07-23T00:20:51;16.50;99.90
24338;DHT22;12457;50.832;4.346;2022-07-23T00:23:18;16.50;99.90
24338;DHT22;12457;50.832;4.346;2022-07-23T00:25:44;16.50;99.90
24338;DHT22;12457;50.832;4.346;2022-07-23T00:28:11;16.50;99.90
24338;DHT22;12457;50.832;4.346;2022-07-23T00:30:37;16.40;99.90
24338;DHT22;12457;50.832;4.346;2022-07-23T00:33:05;16.40;99.90
24338;DHT22;12457;50.832;4.346;2022-07-23T00:35:37;16.40;99.90
24338;DHT22;12457;50.832;4.346;2022-07-23T00:38:06;16.30;99.90
24338;DHT22;12457;50.832;4.346;2022-07-23T00:40:33;16.30;99.90
24338;DHT22;12457;50.832;4.346;2022-07-23T00:43:00;16.30;99.90
24338;DHT22;12457;50.832;4.346;2022-07-23T00:45:29;16.40;99.90
24338;DHT22;12457;50.832;4.346;2022-07-23T00:47:55;16.40;99.90
24338;DHT22;12457;50.832;4.346;2022-07-23T00:50:23;16.40;99.90
24338;DHT22;12457;50.832;4.346;2022-07-23T00:52:54;16.30;99.90
24338;DHT22;12457;50.832;4.346;2022-07-23T00:55:20;16.30;99.90
24338;DHT22;12457;50.832;4.346;2022-07-23T00:57:46;16.30;99.90
24338;DHT22;12457;50.832;4.346;2022-07-23T01:00:13;16.30;99.90
24338;DHT22;12457;50.832;4.346;2022-07-23T01:02:41;16.40;99.90
24338;DHT22;12457;50.832;4.346;2022-07-23T01:05:07;16.40;99.90
24338;DHT22;12457;50.832;4.346;2022-07-23T01:07:34;16.30;99.90
24338;DHT22;12457;50.832;4.346;2022-07-23T01:10:00;16.20;99.90
24338;DHT22;12457;50.832;4.346;2022-07-23T01:12:26;16.20;99.90
24338;DHT22;12457;50.832;4.346;2022-07-23T01:14:58;16.10;99.90
24338;DHT22;12457;50.832;4.346;2022-07-23T01:17:24;16.10;99.90
24338;DHT22;12457;50.832;4.346;2022-07-23T01:19:52;16.10;99.90
24338;DHT22;12457;50.832;4.346;2022-07-23T01:22:19;16.10;99.90
24338;DHT22;12457;50.832;4.346;2022-07-23T01:24:46;16.10;99.90
24338;DHT22;12457;50.832;4.346;2022-07-23T01:27:11;16.10;99.90
24338;DHT22;12457;50.832;4.346;2022-07-23T01:29:41;16.10;99.90
24338;DHT22;12457;50.832;4.346;2022-07-23T01:32:07;16.10;99.90
24338;DHT22;12457;50.832;4.346;2022-07-23T01:34:36;16.10;99.90
24338;DHT22;12457;50.832;4.346;2022-07-23T01:37:02;16.10;99.90
24338;DHT22;12457;50.832;4.346;2022-07-23T01:39:27;16.00;99.90
24338;DHT22;12457;50.832;4.346;2022-07-23T01:41:53;15.90;99.90
24338;DHT22;12457;50.832;4.346;2022-07-23T01:44:19;15.90;99.90
24338;DHT22;12457;50.832;4.346;2022-07-23T01:46:45;16.00;99.90
24338;DHT22;12457;50.832;4.346;2022-07-23T01:49:10;16.00;99.90
24338;DHT22;12457;50.832;4.346;2022-07-23T01:51:37;16.00;99.90
24338;DHT22;12457;50.832;4.346;2022-07-23T01:54:23;16.00;99.90
24338;DHT22;12457;50.832;4.346;2022-07-23T01:56:48;16.00;99.90
24338;DHT22;12457;50.832;4.346;2022-07-23T01:59:14;16.00;99.90
24338;DHT22;12457;50.832;4.346;2022-07-23T02:01:40;16.00;99.90
24338;DHT22;12457;50.832;4.346;2022-07-23T02:04:06;15.90;99.90
24338;DHT22;12457;50.832;4.346;2022-07-23T02:06:31;16.00;99.90
24338;DHT22;12457;50.832;4.346;2022-07-23T02:08:57;15.90;99.90
24338;DHT22;12457;50.832;4.346;2022-07-23T02:11:23;15.90;99.90
24338;DHT22;12457;50.832;4.346;2022-07-23T02:13:49;16.00;99.90
24338;DHT22;12457;50.832;4.346;2022-07-23T02:16:14;16.10;99.90
24338;DHT22;12457;50.832;4.346;2022-07-23T02:18:40;16.10;99.90
24338;DHT22;12457;50.832;4.346;2022-07-23T02:21:06;16.10;99.90
24338;DHT22;12457;50.832;4.346;2022-07-23T02:23:35;16.00;99.90
24338;DHT22;12457;50.832;4.346;2022-07-23T02:26:01;16.00;99.90
24338;DHT22;12457;50.832;4.346;2022-07-23T02:28:26;16.00;99.90
24338;DHT22;12457;50.832;4.346;2022-07-23T02:30:52;16.00;99.90
24338;DHT22;12457;50.832;4.346;2022-07-23T02:33:18;16.00;99.90
24338;DHT22;12457;50.832;4.346;2022-07-23T02:35:43;15.90;99.90
24338;DHT22;12457;50.832;4.346;2022-07-23T02:38:09;15.90;99.90
24338;DHT22;12457;50.832;4.346;2022-07-23T02:40:38;15.90;99.90
24338;DHT22;12457;50.832;4.346;2022-07-23T02:43:05;15.90;99.90
24338;DHT22;12457;50.832;4.346;2022-07-23T02:45:30;16.00;99.90
24338;DHT22;12457;50.832;4.346;2022-07-23T02:47:56;16.00;99.90
24338;DHT22;12457;50.832;4.346;2022-07-23T02:50:22;15.90;99.90
24338;DHT22;12457;50.832;4.346;2022-07-23T02:52:48;16.00;99.90
24338;DHT22;12457;50.832;4.346;2022-07-23T02:55:14;15.90;99.90
24338;DHT22;12457;50.832;4.346;2022-07-23T02:57:43;15.90;99.90
24338;DHT22;12457;50.832;4.346;2022-07-23T03:00:13;15.90;99.90
24338;DHT22;12457;50.832;4.346;2022-07-23T03:02:41;15.80;99.90
24338;DHT22;12457;50.832;4.346;2022-07-23T03:05:08;15.80;99.90
24338;DHT22;12457;50.832;4.346;2022-07-23T03:07:33;15.80;99.90
24338;DHT22;12457;50.832;4.346;2022-07-23T03:09:59;15.90;99.90
24338;DHT22;12457;50.832;4.346;2022-07-23T03:12:25;15.80;99.90
24338;DHT22;12457;50.832;4.346;2022-07-23T03:14:51;15.70;99.90
24338;DHT22;12457;50.832;4.346;2022-07-23T03:17:17;15.70;99.90
24338;DHT22;12457;50.832;4.346;2022-07-23T03:19:45;15.70;99.90
24338;DHT22;12457;50.832;4.346;2022-07-23T03:22:11;15.70;99.90
24338;DHT22;12457;50.832;4.346;2022-07-23T03:24:37;15.60;99.90
24338;DHT22;12457;50.832;4.346;2022-07-23T03:27:22;15.60;99.90
24338;DHT22;12457;50.832;4.346;2022-07-23T03:29:52;15.70;99.90
24338;DHT22;12457;50.832;4.346;2022-07-23T03:32:18;15.70;99.90
24338;DHT22;12457;50.832;4.346;2022-07-23T03:34:44;15.70;99.90
24338;DHT22;12457;50.832;4.346;2022-07-23T03:37:10;15.80;99.90
24338;DHT22;12457;50.832;4.346;2022-07-23T03:39:36;15.80;99.90
24338;DHT22;12457;50.832;4.346;2022-07-23T03:42:02;15.80;99.90
24338;DHT22;12457;50.832;4.346;2022-07-23T03:44:28;16.00;99.90
24338;DHT22;12457;50.832;4.346;2022-07-23T03:46:54;16.00;99.90
24338;DHT22;12457;50.832;4.346;2022-07-23T03:49:20;15.90;99.90
24338;DHT22;12457;50.832;4.346;2022-07-23T03:51:46;15.90;99.90
24338;DHT22;12457;50.832;4.346;2022-07-23T03:54:11;15.80;99.90
24338;DHT22;12457;50.832;4.346;2022-07-23T03:56:37;15.90;99.90
24338;DHT22;12457;50.832;4.346;2022-07-23T03:59:03;15.80;99.90
24338;DHT22;12457;50.832;4.346;2022-07-23T04:01:32;15.80;99.90
24338;DHT22;12457;50.832;4.346;2022-07-23T04:03:58;15.80;99.90
24338;DHT22;12457;50.832;4.346;2022-07-23T04:06:24;15.70;99.90
24338;DHT22;12457;50.832;4.346;2022-07-23T04:08:50;15.80;99.90
24338;DHT22;12457;50.832;4.346;2022-07-23T04:11:15;15.80;99.90
24338;DHT22;12457;50.832;4.346;2022-07-23T04:13:41;15.90;99.90
24338;DHT22;12457;50.832;4.346;2022-07-23T04:16:07;15.90;99.90
24338;DHT22;12457;50.832;4.346;2022-07-23T04:18:33;16.00;99.90
24338;DHT22;12457;50.832;4.346;2022-07-23T04:20:59;16.00;99.90
24338;DHT22;12457;50.832;4.346;2022-07-23T04:23:24;16.00;99.90
24338;DHT22;12457;50.832;4.346;2022-07-23T04:25:50;16.10;99.90
24338;DHT22;12457;50.832;4.346;2022-07-23T04:28:15;16.10;99.90
24338;DHT22;12457;50.832;4.346;2022-07-23T04:30:41;16.10;99.90
24338;DHT22;12457;50.832;4.346;2022-07-23T04:33:07;16.00;99.90
24338;DHT22;12457;50.832;4.346;2022-07-23T04:35:34;16.10;99.90
24338;DHT22;12457;50.832;4.346;2022-07-23T04:37:59;16.00;99.90
24338;DHT22;12457;50.832;4.346;2022-07-23T04:40:26;16.10;99.90
24338;DHT22;12457;50.832;4.346;2022-07-23T04:42:52;16.10;99.90
24338;DHT22;12457;50.832;4.346;2022-07-23T04:45:18;16.20;99.90
24338;DHT22;12457;50.832;4.346;2022-07-23T04:47:44;16.20;99.90
24338;DHT22;12457;50.832;4.346;2022-07-23T04:50:10;16.20;99.90
24338;DHT22;12457;50.832;4.346;2022-07-23T04:52:35;16.20;99.90
24338;DHT22;12457;50.832;4.346;2022-07-23T04:55:01;16.20;99.90
24338;DHT22;12457;50.832;4.346;2022-07-23T04:57:27;16.40;99.90
24338;DHT22;12457;50.832;4.346;2022-07-23T04:59:53;16.70;99.90
24338;DHT22;12457;50.832;4.346;2022-07-23T05:02:19;16.90;99.90
24338;DHT22;12457;50.832;4.346;2022-07-23T05:04:45;17.20;99.90
24338;DHT22;12457;50.832;4.346;2022-07-23T05:07:11;17.70;99.90
24338;DHT22;12457;50.832;4.346;2022-07-23T05:09:37;18.10;99.90
24338;DHT22;12457;50.832;4.346;2022-07-23T05:12:03;18.50;99.90
24338;DHT22;12457;50.832;4.346;2022-07-23T05:14:28;18.90;98.10
24338;DHT22;12457;50.832;4.346;2022-07-23T05:16:54;18.90;93.70
24338;DHT22;12457;50.832;4.346;2022-07-23T05:19:20;19.10;93.70
24338;DHT22;12457;50.832;4.346;2022-07-23T05:21:46;19.00;91.60
24338;DHT22;12457;50.832;4.346;2022-07-23T05:24:12;19.00;89.50
24338;DHT22;12457;50.832;4.346;2022-07-23T05:26:38;19.10;93.80
24338;DHT22;12457;50.832;4.346;2022-07-23T05:29:07;19.20;92.50
24338;DHT22;12457;50.832;4.346;2022-07-23T05:31:33;19.00;91.40
24338;DHT22;12457;50.832;4.346;2022-07-23T05:33:58;19.30;87.80
24338;DHT22;12457;50.832;4.346;2022-07-23T05:36:24;19.40;85.80
24338;DHT22;12457;50.832;4.346;2022-07-23T05:38:50;19.40;89.10
24338;DHT22;12457;50.832;4.346;2022-07-23T05:41:18;19.50;86.10
24338;DHT22;12457;50.832;4.346;2022-07-23T05:43:44;19.50;87.80
24338;DHT22;12457;50.832;4.346;2022-07-23T05:46:11;19.40;83.90
24338;DHT22;12457;50.832;4.346;2022-07-23T05:48:37;19.50;85.30
24338;DHT22;12457;50.832;4.346;2022-07-23T05:51:04;19.60;80.80
24338;DHT22;12457;50.832;4.346;2022-07-23T05:53:33;19.70;77.20
24338;DHT22;12457;50.832;4.346;2022-07-23T05:56:00;20.00;78.50
24338;DHT22;12457;50.832;4.346;2022-07-23T05:58:26;20.20;76.00
24338;DHT22;12457;50.832;4.346;2022-07-23T06:00:52;20.20;79.00
24338;DHT22;12457;50.832;4.346;2022-07-23T06:03:17;20.60;79.10
24338;DHT22;12457;50.832;4.346;2022-07-23T06:05:43;21.10;74.50
24338;DHT22;12457;50.832;4.346;2022-07-23T06:08:09;21.50;62.40
24338;DHT22;12457;50.832;4.346;2022-07-23T06:10:37;21.20;61.30
24338;DHT22;12457;50.832;4.346;2022-07-23T06:13:03;21.10;64.00
24338;DHT22;12457;50.832;4.346;2022-07-23T06:15:29;21.30;67.30
24338;DHT22;12457;50.832;4.346;2022-07-23T06:18:05;22.10;55.60
24338;DHT22;12457;50.832;4.346;2022-07-23T06:20:30;22.50;49.20
24338;DHT22;12457;50.832;4.346;2022-07-23T06:22:56;23.40;34.60
24338;DHT22;12457;50.832;4.346;2022-07-23T06:25:22;23.50;28.10
24338;DHT22;12457;50.832;4.346;2022-07-23T06:27:48;23.30;5.40
24338;DHT22;12457;50.832;4.346;2022-07-23T06:30:16;22.80;18.00
24338;DHT22;12457;50.832;4.346;2022-07-23T06:32:43;23.00;3.30
24338;DHT22;12457;50.832;4.346;2022-07-23T06:35:09;23.30;1.00
24338;DHT22;12457;50.832;4.346;2022-07-23T06:37:35;22.90;1.00
24338;DHT22;12457;50.832;4.346;2022-07-23T06:40:00;22.40;1.00
24338;DHT22;12457;50.832;4.346;2022-07-23T06:42:26;22.10;3.20
24338;DHT22;12457;50.832;4.346;2022-07-23T06:44:52;21.90;9.90
24338;DHT22;12457;50.832;4.346;2022-07-23T06:47:18;21.70;13.80
24338;DHT22;12457;50.832;4.346;2022-07-23T06:49:43;22.00;13.30
24338;DHT22;12457;50.832;4.346;2022-07-23T06:52:09;21.90;5.70
24338;DHT22;12457;50.832;4.346;2022-07-23T06:54:35;22.40;1.00
24338;DHT22;12457;50.832;4.346;2022-07-23T06:57:00;23.30;1.00
24338;DHT22;12457;50.832;4.346;2022-07-23T06:59:26;23.40;1.00
24338;DHT22;12457;50.832;4.346;2022-07-23T07:01:52;23.10;1.00
24338;DHT22;12457;50.832;4.346;2022-07-23T07:04:18;23.30;1.00
24338;DHT22;12457;50.832;4.346;2022-07-23T07:06:44;23.60;1.00
24338;DHT22;12457;50.832;4.346;2022-07-23T07:09:10;24.00;1.00
24338;DHT22;12457;50.832;4.346;2022-07-23T07:11:36;24.20;1.00
24338;DHT22;12457;50.832;4.346;2022-07-23T07:14:02;24.50;1.00
24338;DHT22;12457;50.832;4.346;2022-07-23T07:16:27;25.20;1.00
24338;DHT22;12457;50.832;4.346;2022-07-23T07:18:53;25.70;1.00
24338;DHT22;12457;50.832;4.346;2022-07-23T07:21:19;26.10;1.00
24338;DHT22;12457;50.832;4.346;2022-07-23T07:23:45;26.60;99.90
24338;DHT22;12457;50.832;4.346;2022-07-23T07:26:11;26.50;99.90
24338;DHT22;12457;50.832;4.346;2022-07-23T07:28:36;25.30;1.00
24338;DHT22;12457;50.832;4.346;2022-07-23T07:31:02;24.50;1.00
24338;DHT22;12457;50.832;4.346;2022-07-23T07:33:28;24.30;1.00
24338;DHT22;12457;50.832;4.346;2022-07-23T07:35:54;25.70;1.00
24338;DHT22;12457;50.832;4.346;2022-07-23T07:38:20;26.50;99.90
24338;DHT22;12457;50.832;4.346;2022-07-23T07:40:45;26.10;99.90
24338;DHT22;12457;50.832;4.346;2022-07-23T07:43:11;26.60;99.90
24338;DHT22;12457;50.832;4.346;2022-07-23T07:45:37;26.50;1.00
24338;DHT22;12457;50.832;4.346;2022-07-23T07:48:03;25.70;99.90
24338;DHT22;12457;50.832;4.346;2022-07-23T07:50:29;25.50;99.90
24338;DHT22;12457;50.832;4.346;2022-07-23T07:52:55;26.70;99.90
24338;DHT22;12457;50.832;4.346;2022-07-23T07:55:26;27.10;99.90
24338;DHT22;12457;50.832;4.346;2022-07-23T07:57:53;27.30;99.90
24338;DHT22;12457;50.832;4.346;2022-07-23T08:00:19;27.60;99.90
24338;DHT22;12457;50.832;4.346;2022-07-23T08:02:50;28.10;1.00
24338;DHT22;12457;50.832;4.346;2022-07-23T08:05:27;28.00;1.00
24338;DHT22;12457;50.832;4.346;2022-07-23T08:07:53;27.10;1.00
24338;DHT22;12457;50.832;4.346;2022-07-23T08:10:19;25.90;99.90
24338;DHT22;12457;50.832;4.346;2022-07-23T08:12:47;25.40;91.20
24338;DHT22;12457;50.832;4.346;2022-07-23T08:15:15;24.70;99.90
24338;DHT22;12457;50.832;4.346;2022-07-23T08:17:42;24.40;1.00
24338;DHT22;12457;50.832;4.346;2022-07-23T08:20:09;24.20;1.00
24338;DHT22;12457;50.832;4.346;2022-07-23T08:22:46;24.00;1.00
24338;DHT22;12457;50.832;4.346;2022-07-23T08:25:13;23.50;1.00
24338;DHT22;12457;50.832;4.346;2022-07-23T08:27:39;22.90;1.00
24338;DHT22;12457;50.832;4.346;2022-07-23T08:30:08;22.90;1.00
24338;DHT22;12457;50.832;4.346;2022-07-23T08:32:47;22.90;1.00
24338;DHT22;12457;50.832;4.346;2022-07-23T08:35:14;22.80;1.00
24338;DHT22;12457;50.832;4.346;2022-07-23T08:37:42;22.70;1.00
24338;DHT22;12457;50.832;4.346;2022-07-23T08:40:08;22.70;1.00
24338;DHT22;12457;50.832;4.346;2022-07-23T08:42:35;23.00;1.00
24338;DHT22;12457;50.832;4.346;2022-07-23T08:45:02;23.20;1.00
24338;DHT22;12457;50.832;4.346;2022-07-23T08:47:29;23.30;1.00
24338;DHT22;12457;50.832;4.346;2022-07-23T08:49:56;23.40;1.00
24338;DHT22;12457;50.832;4.346;2022-07-23T08:52:24;23.20;1.00
24338;DHT22;12457;50.832;4.346;2022-07-23T08:54:50;23.00;1.00
24338;DHT22;12457;50.832;4.346;2022-07-23T08:57:16;22.60;1.00
24338;DHT22;12457;50.832;4.346;2022-07-23T08:59:42;22.40;1.00
24338;DHT22;12457;50.832;4.346;2022-07-23T09:02:10;22.50;1.00
24338;DHT22;12457;50.832;4.346;2022-07-23T09:04:37;22.60;1.00
24338;DHT22;12457;50.832;4.346;2022-07-23T09:07:03;22.40;1.00
24338;DHT22;12457;50.832;4.346;2022-07-23T09:09:28;22.50;1.00
24338;DHT22;12457;50.832;4.346;2022-07-23T09:12:07;22.60;1.00
24338;DHT22;12457;50.832;4.346;2022-07-23T09:14:41;23.00;1.00
24338;DHT22;12457;50.832;4.346;2022-07-23T09:17:14;23.30;1.00
24338;DHT22;12457;50.832;4.346;2022-07-23T09:19:41;23.40;1.00
24338;DHT22;12457;50.832;4.346;2022-07-23T09:22:25;23.50;1.00
24338;DHT22;12457;50.832;4.346;2022-07-23T09:25:09;23.60;1.00
24338;DHT22;12457;50.832;4.346;2022-07-23T09:27:57;23.40;1.00
24338;DHT22;12457;50.832;4.346;2022-07-23T09:30:26;23.60;1.00
24338;DHT22;12457;50.832;4.346;2022-07-23T09:33:14;24.00;1.00
24338;DHT22;12457;50.832;4.346;2022-07-23T09:35:53;23.80;99.90
24338;DHT22;12457;50.832;4.346;2022-07-23T09:38:21;23.70;1.00
24338;DHT22;12457;50.832;4.346;2022-07-23T09:41:08;23.80;99.90
24338;DHT22;12457;50.832;4.346;2022-07-23T09:43:39;23.90;99.90
24338;DHT22;12457;50.832;4.346;2022-07-23T09:46:25;23.80;99.90
24338;DHT22;12457;50.832;4.346;2022-07-23T09:48:52;23.80;99.90
24338;DHT22;12457;50.832;4.346;2022-07-23T09:51:19;23.70;99.90
24338;DHT22;12457;50.832;4.346;2022-07-23T09:54:05;23.70;1.00
24338;DHT22;12457;50.832;4.346;2022-07-23T09:56:31;23.70;1.00
24338;DHT22;12457;50.832;4.346;2022-07-23T09:58:58;23.70;1.00
24338;DHT22;12457;50.832;4.346;2022-07-23T10:01:53;23.70;99.90
24338;DHT22;12457;50.832;4.346;2022-07-23T10:04:21;24.00;99.90
24338;DHT22;12457;50.832;4.346;2022-07-23T10:06:51;24.00;99.90
24338;DHT22;12457;50.832;4.346;2022-07-23T10:09:22;23.90;1.00
24338;DHT22;12457;50.832;4.346;2022-07-23T10:11:49;23.90;1.00
24338;DHT22;12457;50.832;4.346;2022-07-23T10:14:16;23.90;99.90
24338;DHT22;12457;50.832;4.346;2022-07-23T10:16:43;24.20;99.90
24338;DHT22;12457;50.832;4.346;2022-07-23T10:19:09;24.10;99.90
24338;DHT22;12457;50.832;4.346;2022-07-23T10:21:48;24.00;99.90
24338;DHT22;12457;50.832;4.346;2022-07-23T10:24:21;23.70;99.90
24338;DHT22;12457;50.832;4.346;2022-07-23T10:32:17;23.50;99.90
24338;DHT22;12457;50.832;4.346;2022-07-23T10:35:04;23.50;99.90
24338;DHT22;12457;50.832;4.346;2022-07-23T10:37:37;23.60;99.90
24338;DHT22;12457;50.832;4.346;2022-07-23T10:40:17;23.80;99.90
24338;DHT22;12457;50.832;4.346;2022-07-23T10:42:47;24.10;99.90
24338;DHT22;12457;50.832;4.346;2022-07-23T10:45:33;24.00;99.90
24338;DHT22;12457;50.832;4.346;2022-07-23T10:51:13;24.10;99.90
24338;DHT22;12457;50.832;4.346;2022-07-23T10:56:49;24.70;1.00
24338;DHT22;12457;50.832;4.346;2022-07-23T10:59:15;24.60;99.90
24338;DHT22;12457;50.832;4.346;2022-07-23T11:01:41;24.30;99.90
24338;DHT22;12457;50.832;4.346;2022-07-23T11:04:07;24.30;1.00
24338;DHT22;12457;50.832;4.346;2022-07-23T11:09:41;24.40;1.00
24338;DHT22;12457;50.832;4.346;2022-07-23T11:17:30;24.70;99.90
24338;DHT22;12457;50.832;4.346;2022-07-23T11:22:48;24.70;99.90
24338;DHT22;12457;50.832;4.346;2022-07-23T11:25:29;24.50;99.90
24338;DHT22;12457;50.832;4.346;2022-07-23T11:28:12;24.70;1.00
24338;DHT22;12457;50.832;4.346;2022-07-23T11:30:39;25.10;99.90
24338;DHT22;12457;50.832;4.346;2022-07-23T11:35:41;25.60;64.80
24338;DHT22;12457;50.832;4.346;2022-07-23T11:40:52;25.80;99.90
24338;DHT22;12457;50.832;4.346;2022-07-23T11:43:19;26.10;99.90
24338;DHT22;12457;50.832;4.346;2022-07-23T11:45:50;26.30;99.90
24338;DHT22;12457;50.832;4.346;2022-07-23T11:48:19;26.40;1.00
24338;DHT22;12457;50.832;4.346;2022-07-23T11:50:45;26.60;99.90
24338;DHT22;12457;50.832;4.346;2022-07-23T11:53:11;26.70;1.00
24338;DHT22;12457;50.832;4.346;2022-07-23T11:55:37;26.90;1.00
24338;DHT22;12457;50.832;4.346;2022-07-23T11:58:02;27.10;99.90
24338;DHT22;12457;50.832;4.346;2022-07-23T12:00:30;27.20;1.00
24338;DHT22;12457;50.832;4.346;2022-07-23T12:02:59;27.00;99.90
24338;DHT22;12457;50.832;4.346;2022-07-23T12:05:30;26.90;1.00
24338;DHT22;12457;50.832;4.346;2022-07-23T12:07:56;26.80;1.00
24338;DHT22;12457;50.832;4.346;2022-07-23T12:10:43;26.60;99.90
24338;DHT22;12457;50.832;4.346;2022-07-23T12:13:10;26.80;1.00
24338;DHT22;12457;50.832;4.346;2022-07-23T12:15:49;27.10;99.90
24338;DHT22;12457;50.832;4.346;2022-07-23T12:18:18;27.40;28.30
24338;DHT22;12457;50.832;4.346;2022-07-23T12:20:46;27.70;1.00
24338;DHT22;12457;50.832;4.346;2022-07-23T12:23:15;27.90;99.90
24338;DHT22;12457;50.832;4.346;2022-07-23T12:25:42;28.10;91.80
24338;DHT22;12457;50.832;4.346;2022-07-23T12:30:43;27.40;1.00
24338;DHT22;12457;50.832;4.346;2022-07-23T12:33:11;27.10;99.90
24338;DHT22;12457;50.832;4.346;2022-07-23T12:35:42;27.00;99.90
24338;DHT22;12457;50.832;4.346;2022-07-23T12:38:13;26.90;1.00
24338;DHT22;12457;50.832;4.346;2022-07-23T12:40:50;27.00;1.00
24338;DHT22;12457;50.832;4.346;2022-07-23T12:46:01;27.20;99.90
24338;DHT22;12457;50.832;4.346;2022-07-23T12:50:56;27.50;99.90
24338;DHT22;12457;50.832;4.346;2022-07-23T12:56:17;27.80;45.80
24338;DHT22;12457;50.832;4.346;2022-07-23T12:58:56;27.90;1.00
24338;DHT22;12457;50.832;4.346;2022-07-23T13:01:27;28.10;99.90
24338;DHT22;12457;50.832;4.346;2022-07-23T13:04:04;27.70;99.90
24338;DHT22;12457;50.832;4.346;2022-07-23T13:09:01;27.50;99.90
24338;DHT22;12457;50.832;4.346;2022-07-23T13:11:27;27.40;99.90
24338;DHT22;12457;50.832;4.346;2022-07-23T13:13:53;27.50;99.90
24338;DHT22;12457;50.832;4.346;2022-07-23T13:16:18;27.40;99.90
24338;DHT22;12457;50.832;4.346;2022-07-23T13:18:44;27.80;1.00
24338;DHT22;12457;50.832;4.346;2022-07-23T13:21:10;27.90;99.90
24338;DHT22;12457;50.832;4.346;2022-07-23T13:23:36;28.00;99.90
24338;DHT22;12457;50.832;4.346;2022-07-23T13:26:02;28.40;99.90
24338;DHT22;12457;50.832;4.346;2022-07-23T13:28:28;28.50;99.90
24338;DHT22;12457;50.832;4.346;2022-07-23T13:30:55;28.40;30.50
24338;DHT22;12457;50.832;4.346;2022-07-23T13:33:23;28.30;21.90
24338;DHT22;12457;50.832;4.346;2022-07-23T13:35:51;28.40;1.00
24338;DHT22;12457;50.832;4.346;2022-07-23T13:38:17;28.60;1.00
24338;DHT22;12457;50.832;4.346;2022-07-23T13:40:45;28.60;1.00
24338;DHT22;12457;50.832;4.346;2022-07-23T13:43:14;28.50;1.00
24338;DHT22;12457;50.832;4.346;2022-07-23T13:45:41;28.20;1.00
24338;DHT22;12457;50.832;4.346;2022-07-23T13:48:08;28.40;1.00
24338;DHT22;12457;50.832;4.346;2022-07-23T13:50:34;27.90;1.00
24338;DHT22;12457;50.832;4.346;2022-07-23T13:53:09;27.70;25.30
24338;DHT22;12457;50.832;4.346;2022-07-23T13:55:36;28.10;99.90
24338;DHT22;12457;50.832;4.346;2022-07-23T13:58:04;28.50;99.90
24338;DHT22;12457;50.832;4.346;2022-07-23T14:00:30;28.80;1.00
24338;DHT22;12457;50.832;4.346;2022-07-23T14:02:57;28.70;1.00
24338;DHT22;12457;50.832;4.346;2022-07-23T14:05:22;28.50;1.00
24338;DHT22;12457;50.832;4.346;2022-07-23T14:07:48;28.50;1.00
24338;DHT22;12457;50.832;4.346;2022-07-23T14:10:17;28.70;1.00
24338;DHT22;12457;50.832;4.346;2022-07-23T14:12:44;28.90;1.00
24338;DHT22;12457;50.832;4.346;2022-07-23T14:15:10;29.10;1.00
24338;DHT22;12457;50.832;4.346;2022-07-23T14:17:37;29.20;1.00
24338;DHT22;12457;50.832;4.346;2022-07-23T14:20:04;28.50;1.00
24338;DHT22;12457;50.832;4.346;2022-07-23T14:22:30;28.40;1.00
24338;DHT22;12457;50.832;4.346;2022-07-23T14:24:56;28.50;1.00
24338;DHT22;12457;50.832;4.346;2022-07-23T14:27:26;28.80;1.00
24338;DHT22;12457;50.832;4.346;2022-07-23T14:29:54;28.80;1.00
24338;DHT22;12457;50.832;4.346;2022-07-23T14:32:19;28.50;1.00
24338;DHT22;12457;50.832;4.346;2022-07-23T14:34:45;28.70;1.00
24338;DHT22;12457;50.832;4.346;2022-07-23T14:37:11;28.80;1.00
24338;DHT22;12457;50.832;4.346;2022-07-23T14:39:38;28.90;1.00
24338;DHT22;12457;50.832;4.346;2022-07-23T14:42:05;28.70;1.00
24338;DHT22;12457;50.832;4.346;2022-07-23T14:44:31;28.60;1.00
24338;DHT22;12457;50.832;4.346;2022-07-23T14:46:57;28.20;1.00
24338;DHT22;12457;50.832;4.346;2022-07-23T14:49:22;28.00;1.00
24338;DHT22;12457;50.832;4.346;2022-07-23T14:51:48;27.80;99.90
24338;DHT22;12457;50.832;4.346;2022-07-23T14:54:14;27.90;99.90
24338;DHT22;12457;50.832;4.346;2022-07-23T14:56:43;28.30;99.90
24338;DHT22;12457;50.832;4.346;2022-07-23T14:59:10;28.70;93.00
24338;DHT22;12457;50.832;4.346;2022-07-23T15:01:36;29.00;1.00
24338;DHT22;12457;50.832;4.346;2022-07-23T15:04:02;29.10;1.00
24338;DHT22;12457;50.832;4.346;2022-07-23T15:06:28;29.30;99.90
24338;DHT22;12457;50.832;4.346;2022-07-23T15:08:54;28.90;99.90
24338;DHT22;12457;50.832;4.346;2022-07-23T15:11:19;29.00;1.00
24338;DHT22;12457;50.832;4.346;2022-07-23T15:13:46;29.20;99.90
24338;DHT22;12457;50.832;4.346;2022-07-23T15:16:11;29.00;99.90
24338;DHT22;12457;50.832;4.346;2022-07-23T15:18:37;28.80;99.90
24338;DHT22;12457;50.832;4.346;2022-07-23T15:21:05;28.70;99.90
24338;DHT22;12457;50.832;4.346;2022-07-23T15:23:31;28.50;99.90
24338;DHT22;12457;50.832;4.346;2022-07-23T15:25:57;28.20;99.90
24338;DHT22;12457;50.832;4.346;2022-07-23T15:28:23;28.40;1.00
24338;DHT22;12457;50.832;4.346;2022-07-23T15:30:52;28.40;1.00
24338;DHT22;12457;50.832;4.346;2022-07-23T15:33:19;28.40;1.00
24338;DHT22;12457;50.832;4.346;2022-07-23T15:35:45;28.70;99.90
24338;DHT22;12457;50.832;4.346;2022-07-23T15:38:11;28.40;99.90
24338;DHT22;12457;50.832;4.346;2022-07-23T15:40:37;28.20;1.00
24338;DHT22;12457;50.832;4.346;2022-07-23T15:43:02;28.30;1.00
24338;DHT22;12457;50.832;4.346;2022-07-23T15:45:30;28.20;1.00
24338;DHT22;12457;50.832;4.346;2022-07-23T15:47:57;28.50;1.00
24338;DHT22;12457;50.832;4.346;2022-07-23T15:50:22;28.80;1.00
24338;DHT22;12457;50.832;4.346;2022-07-23T15:52:48;28.90;99.90
24338;DHT22;12457;50.832;4.346;2022-07-23T15:55:14;29.00;99.90
24338;DHT22;12457;50.832;4.346;2022-07-23T15:57:40;29.10;99.90
24338;DHT22;12457;50.832;4.346;2022-07-23T16:00:06;29.00;99.90
24338;DHT22;12457;50.832;4.346;2022-07-23T16:02:33;28.70;99.90
24338;DHT22;12457;50.832;4.346;2022-07-23T16:04:59;28.60;99.90
24338;DHT22;12457;50.832;4.346;2022-07-23T16:07:24;28.60;99.90
24338;DHT22;12457;50.832;4.346;2022-07-23T16:09:50;28.40;99.90
24338;DHT22;12457;50.832;4.346;2022-07-23T16:12:15;28.10;1.00
24338;DHT22;12457;50.832;4.346;2022-07-23T16:14:41;28.10;1.00
24338;DHT22;12457;50.832;4.346;2022-07-23T16:17:07;27.90;1.00
24338;DHT22;12457;50.832;4.346;2022-07-23T16:19:33;28.10;40.00